sensor_id;sensor_type;location;lat;lon;timestamp;P1;durP1;ratioP1;P2;durP2;ratioP2
74793;SDS011;63320;50.768;6.724;2023-04-25T00:00:16;14.00;;;4.70;;
74793;SDS011;63320;50.768;6.724;2023-04-25T00:02:42;16.60;;;5.28;;
74793;SDS011;63320;50.768;6.724;2023-04-25T00:05:07;16.15;;;4.90;;
74793;SDS011;63320;50.768;6.724;2023-04-25T00:07:33;12.27;;;4.55;;
74793;SDS011;63320;50.768;6.724;2023-04-25T00:09:59;14.93;;;4.32;;
74793;SDS011;63320;50.768;6.724;2023-04-25T00:12:24;14.23;;;4.57;;
74793;SDS011;63320;50.768;6.724;2023-04-25T00:14:49;10.75;;;4.28;;
74793;SDS011;63320;50.768;6.724;2023-04-25T00:17:16;10.38;;;3.55;;
74793;SDS011;63320;50.768;6.724;2023-04-25T00:19:41;14.48;;;4.95;;
74793;SDS011;63320;50.768;6.724;2023-04-25T00:22:07;13.55;;;4.43;;
74793;SDS011;63320;50.768;6.724;2023-04-25T00:24:32;12.68;;;4.03;;
74793;SDS011;63320;50.768;6.724;2023-04-25T00:26:58;10.57;;;4.30;;
74793;SDS011;63320;50.768;6.724;2023-04-25T00:29:23;13.43;;;4.18;;
74793;SDS011;63320;50.768;6.724;2023-04-25T00:31:48;14.98;;;4.32;;
74793;SDS011;63320;50.768;6.724;2023-04-25T00:34:15;14.75;;;4.75;;
74793;SDS011;63320;50.768;6.724;2023-04-25T00:36:40;12.48;;;3.97;;
74793;SDS011;63320;50.768;6.724;2023-04-25T00:39:06;14.82;;;4.15;;
74793;SDS011;63320;50.768;6.724;2023-04-25T00:41:31;14.88;;;4.38;;
74793;SDS011;63320;50.768;6.724;2023-04-25T00:43:57;11.93;;;4.60;;
74793;SDS011;63320;50.768;6.724;2023-04-25T00:46:24;14.38;;;5.40;;
74793;SDS011;63320;50.768;6.724;2023-04-25T00:48:50;12.20;;;5.32;;
74793;SDS011;63320;50.768;6.724;2023-04-25T00:51:19;18.83;;;5.88;;
74793;SDS011;63320;50.768;6.724;2023-04-25T00:53:45;13.35;;;4.95;;
74793;SDS011;63320;50.768;6.724;2023-04-25T00:56:11;11.52;;;4.85;;
74793;SDS011;63320;50.768;6.724;2023-04-25T00:58:37;13.77;;;5.30;;
74793;SDS011;63320;50.768;6.724;2023-04-25T01:01:03;12.57;;;4.65;;
74793;SDS011;63320;50.768;6.724;2023-04-25T01:03:29;12.20;;;4.45;;
74793;SDS011;63320;50.768;6.724;2023-04-25T01:05:56;13.48;;;4.80;;
74793;SDS011;63320;50.768;6.724;2023-04-25T01:08:24;12.32;;;4.65;;
74793;SDS011;63320;50.768;6.724;2023-04-25T01:10:49;13.95;;;4.57;;
74793;SDS011;63320;50.768;6.724;2023-04-25T01:13:15;12.00;;;4.65;;
74793;SDS011;63320;50.768;6.724;2023-04-25T01:15:40;10.30;;;4.80;;
74793;SDS011;63320;50.768;6.724;2023-04-25T01:18:05;11.85;;;5.20;;
74793;SDS011;63320;50.768;6.724;2023-04-25T01:20:32;11.95;;;4.90;;
74793;SDS011;63320;50.768;6.724;2023-04-25T01:22:59;15.10;;;5.45;;
74793;SDS011;63320;50.768;6.724;2023-04-25T01:25:25;10.13;;;4.57;;
74793;SDS011;63320;50.768;6.724;2023-04-25T01:27:51;14.77;;;5.13;;
74793;SDS011;63320;50.768;6.724;2023-04-25T01:30:16;10.55;;;4.80;;
74793;SDS011;63320;50.768;6.724;2023-04-25T01:32:42;11.93;;;5.07;;
74793;SDS011;63320;50.768;6.724;2023-04-25T01:35:08;14.02;;;5.43;;
74793;SDS011;63320;50.768;6.724;2023-04-25T01:37:35;13.02;;;4.97;;
74793;SDS011;63320;50.768;6.724;2023-04-25T01:40:02;11.45;;;5.03;;
74793;SDS011;63320;50.768;6.724;2023-04-25T01:42:28;16.10;;;5.35;;
74793;SDS011;63320;50.768;6.724;2023-04-25T01:44:53;11.02;;;5.05;;
74793;SDS011;63320;50.768;6.724;2023-04-25T01:47:19;14.98;;;5.20;;
74793;SDS011;63320;50.768;6.724;2023-04-25T01:49:44;13.52;;;4.60;;
74793;SDS011;63320;50.768;6.724;2023-04-25T01:52:09;13.93;;;4.57;;
74793;SDS011;63320;50.768;6.724;2023-04-25T01:54:35;19.23;;;4.80;;
74793;SDS011;63320;50.768;6.724;2023-04-25T01:57:02;12.63;;;5.00;;
74793;SDS011;63320;50.768;6.724;2023-04-25T01:59:27;14.38;;;4.18;;
74793;SDS011;63320;50.768;6.724;2023-04-25T02:01:52;15.05;;;4.43;;
74793;SDS011;63320;50.768;6.724;2023-04-25T02:04:18;16.73;;;5.55;;
74793;SDS011;63320;50.768;6.724;2023-04-25T02:06:43;12.20;;;4.68;;
74793;SDS011;63320;50.768;6.724;2023-04-25T02:09:08;14.07;;;3.92;;
74793;SDS011;63320;50.768;6.724;2023-04-25T02:11:34;12.55;;;4.07;;
74793;SDS011;63320;50.768;6.724;2023-04-25T02:14:00;12.48;;;3.78;;
74793;SDS011;63320;50.768;6.724;2023-04-25T02:16:26;16.27;;;4.32;;
74793;SDS011;63320;50.768;6.724;2023-04-25T02:18:51;12.93;;;3.92;;
74793;SDS011;63320;50.768;6.724;2023-04-25T02:21:16;15.27;;;4.13;;
74793;SDS011;63320;50.768;6.724;2023-04-25T02:23:42;13.68;;;4.15;;
74793;SDS011;63320;50.768;6.724;2023-04-25T02:26:07;12.15;;;4.03;;
74793;SDS011;63320;50.768;6.724;2023-04-25T02:28:32;12.18;;;3.78;;
74793;SDS011;63320;50.768;6.724;2023-04-25T02:30:59;12.15;;;4.15;;
74793;SDS011;63320;50.768;6.724;2023-04-25T02:33:24;19.05;;;4.68;;
74793;SDS011;63320;50.768;6.724;2023-04-25T02:35:50;17.35;;;4.00;;
74793;SDS011;63320;50.768;6.724;2023-04-25T02:38:15;12.85;;;4.07;;
74793;SDS011;63320;50.768;6.724;2023-04-25T02:40:41;19.98;;;5.15;;
74793;SDS011;63320;50.768;6.724;2023-04-25T02:43:06;15.65;;;4.40;;
74793;SDS011;63320;50.768;6.724;2023-04-25T02:45:31;15.68;;;4.50;;
74793;SDS011;63320;50.768;6.724;2023-04-25T02:47:58;15.48;;;4.07;;
74793;SDS011;63320;50.768;6.724;2023-04-25T02:50:23;14.90;;;4.38;;
74793;SDS011;63320;50.768;6.724;2023-04-25T02:52:49;16.83;;;4.70;;
74793;SDS011;63320;50.768;6.724;2023-04-25T02:55:14;13.07;;;3.95;;
74793;SDS011;63320;50.768;6.724;2023-04-25T02:57:39;19.35;;;5.05;;
74793;SDS011;63320;50.768;6.724;2023-04-25T03:00:05;17.55;;;4.65;;
74793;SDS011;63320;50.768;6.724;2023-04-25T03:02:31;19.70;;;5.32;;
74793;SDS011;63320;50.768;6.724;2023-04-25T03:04:58;15.60;;;4.93;;
74793;SDS011;63320;50.768;6.724;2023-04-25T03:07:23;13.55;;;4.90;;
74793;SDS011;63320;50.768;6.724;2023-04-25T03:09:49;18.25;;;4.97;;
74793;SDS011;63320;50.768;6.724;2023-04-25T03:12:14;11.90;;;4.38;;
74793;SDS011;63320;50.768;6.724;2023-04-25T03:14:39;16.50;;;4.85;;
74793;SDS011;63320;50.768;6.724;2023-04-25T03:17:05;16.20;;;4.90;;
74793;SDS011;63320;50.768;6.724;2023-04-25T03:19:30;16.83;;;4.70;;
74793;SDS011;63320;50.768;6.724;2023-04-25T03:21:57;15.63;;;4.50;;
74793;SDS011;63320;50.768;6.724;2023-04-25T03:24:22;15.57;;;5.00;;
74793;SDS011;63320;50.768;6.724;2023-04-25T03:26:47;18.90;;;4.65;;
74793;SDS011;63320;50.768;6.724;2023-04-25T03:29:13;17.13;;;4.90;;
74793;SDS011;63320;50.768;6.724;2023-04-25T03:31:38;18.52;;;4.90;;
74793;SDS011;63320;50.768;6.724;2023-04-25T03:34:03;16.35;;;5.45;;
74793;SDS011;63320;50.768;6.724;2023-04-25T03:36:29;14.93;;;5.20;;
74793;SDS011;63320;50.768;6.724;2023-04-25T03:38:55;15.18;;;5.13;;
74793;SDS011;63320;50.768;6.724;2023-04-25T03:41:21;12.85;;;4.85;;
74793;SDS011;63320;50.768;6.724;2023-04-25T03:43:46;14.15;;;5.30;;
74793;SDS011;63320;50.768;6.724;2023-04-25T03:46:11;17.00;;;5.10;;
74793;SDS011;63320;50.768;6.724;2023-04-25T03:48:37;22.30;;;5.82;;
74793;SDS011;63320;50.768;6.724;2023-04-25T03:51:02;16.73;;;5.10;;
74793;SDS011;63320;50.768;6.724;2023-04-25T03:53:28;16.67;;;4.60;;
74793;SDS011;63320;50.768;6.724;2023-04-25T03:55:54;18.23;;;6.13;;
74793;SDS011;63320;50.768;6.724;2023-04-25T03:58:20;13.70;;;4.85;;
74793;SDS011;63320;50.768;6.724;2023-04-25T04:00:45;15.35;;;4.82;;
74793;SDS011;63320;50.768;6.724;2023-04-25T04:03:10;16.33;;;5.13;;
74793;SDS011;63320;50.768;6.724;2023-04-25T04:05:36;16.25;;;5.32;;
74793;SDS011;63320;50.768;6.724;2023-04-25T04:08:01;19.20;;;5.00;;
74793;SDS011;63320;50.768;6.724;2023-04-25T04:10:26;16.88;;;5.35;;
74793;SDS011;63320;50.768;6.724;2023-04-25T04:12:53;17.15;;;5.68;;
74793;SDS011;63320;50.768;6.724;2023-04-25T04:15:18;20.48;;;5.40;;
74793;SDS011;63320;50.768;6.724;2023-04-25T04:17:44;18.10;;;5.55;;
74793;SDS011;63320;50.768;6.724;2023-04-25T04:20:09;17.45;;;5.38;;
74793;SDS011;63320;50.768;6.724;2023-04-25T04:22:35;16.27;;;5.55;;
74793;SDS011;63320;50.768;6.724;2023-04-25T04:25:00;19.00;;;5.82;;
74793;SDS011;63320;50.768;6.724;2023-04-25T04:27:26;16.10;;;5.47;;
74793;SDS011;63320;50.768;6.724;2023-04-25T04:29:53;14.38;;;4.90;;
74793;SDS011;63320;50.768;6.724;2023-04-25T04:32:18;17.38;;;5.00;;
74793;SDS011;63320;50.768;6.724;2023-04-25T04:34:43;14.07;;;5.15;;
74793;SDS011;63320;50.768;6.724;2023-04-25T04:37:09;17.25;;;5.07;;
74793;SDS011;63320;50.768;6.724;2023-04-25T04:39:34;17.95;;;5.63;;
74793;SDS011;63320;50.768;6.724;2023-04-25T04:41:59;19.58;;;6.45;;
74793;SDS011;63320;50.768;6.724;2023-04-25T04:44:25;19.85;;;5.30;;
74793;SDS011;63320;50.768;6.724;2023-04-25T04:46:51;17.17;;;5.53;;
74793;SDS011;63320;50.768;6.724;2023-04-25T04:49:17;18.85;;;5.60;;
74793;SDS011;63320;50.768;6.724;2023-04-25T04:51:42;18.58;;;6.57;;
74793;SDS011;63320;50.768;6.724;2023-04-25T04:54:08;14.68;;;4.93;;
74793;SDS011;63320;50.768;6.724;2023-04-25T04:56:33;17.98;;;5.20;;
74793;SDS011;63320;50.768;6.724;2023-04-25T04:58:58;18.52;;;5.55;;
74793;SDS011;63320;50.768;6.724;2023-04-25T05:01:24;15.38;;;5.03;;
74793;SDS011;63320;50.768;6.724;2023-04-25T05:03:51;16.02;;;5.22;;
74793;SDS011;63320;50.768;6.724;2023-04-25T05:06:17;17.25;;;4.90;;
74793;SDS011;63320;50.768;6.724;2023-04-25T05:08:43;15.40;;;4.90;;
74793;SDS011;63320;50.768;6.724;2023-04-25T05:11:08;18.92;;;5.85;;
74793;SDS011;63320;50.768;6.724;2023-04-25T05:13:34;19.45;;;5.43;;
74793;SDS011;63320;50.768;6.724;2023-04-25T05:15:59;13.68;;;4.43;;
74793;SDS011;63320;50.768;6.724;2023-04-25T05:18:25;20.58;;;5.63;;
74793;SDS011;63320;50.768;6.724;2023-04-25T05:20:51;17.40;;;5.00;;
74793;SDS011;63320;50.768;6.724;2023-04-25T05:23:17;16.83;;;5.38;;
74793;SDS011;63320;50.768;6.724;2023-04-25T05:25:42;14.25;;;5.07;;
74793;SDS011;63320;50.768;6.724;2023-04-25T05:28:07;22.10;;;4.97;;
74793;SDS011;63320;50.768;6.724;2023-04-25T05:30:33;13.32;;;4.40;;
74793;SDS011;63320;50.768;6.724;2023-04-25T05:32:59;19.67;;;5.43;;
74793;SDS011;63320;50.768;6.724;2023-04-25T05:35:24;17.88;;;5.25;;
74793;SDS011;63320;50.768;6.724;2023-04-25T05:37:51;21.50;;;5.97;;
74793;SDS011;63320;50.768;6.724;2023-04-25T05:40:16;19.10;;;5.32;;
74793;SDS011;63320;50.768;6.724;2023-04-25T05:42:42;20.40;;;5.25;;
74793;SDS011;63320;50.768;6.724;2023-04-25T05:45:07;13.02;;;4.45;;
74793;SDS011;63320;50.768;6.724;2023-04-25T05:47:33;15.55;;;5.30;;
74793;SDS011;63320;50.768;6.724;2023-04-25T05:49:58;16.63;;;4.63;;
74793;SDS011;63320;50.768;6.724;2023-04-25T05:52:23;16.23;;;5.03;;
74793;SDS011;63320;50.768;6.724;2023-04-25T05:54:50;18.70;;;4.93;;
74793;SDS011;63320;50.768;6.724;2023-04-25T05:57:19;17.88;;;5.25;;
74793;SDS011;63320;50.768;6.724;2023-04-25T05:59:45;18.85;;;5.45;;
74793;SDS011;63320;50.768;6.724;2023-04-25T06:02:11;19.20;;;5.82;;
74793;SDS011;63320;50.768;6.724;2023-04-25T06:04:36;14.38;;;4.82;;
74793;SDS011;63320;50.768;6.724;2023-04-25T06:07:01;17.08;;;5.05;;
74793;SDS011;63320;50.768;6.724;2023-04-25T06:09:27;19.23;;;5.03;;
74793;SDS011;63320;50.768;6.724;2023-04-25T06:11:53;23.90;;;5.63;;
74793;SDS011;63320;50.768;6.724;2023-04-25T06:14:19;19.70;;;5.20;;
74793;SDS011;63320;50.768;6.724;2023-04-25T06:16:44;18.95;;;4.97;;
74793;SDS011;63320;50.768;6.724;2023-04-25T06:19:09;16.83;;;5.47;;
74793;SDS011;63320;50.768;6.724;2023-04-25T06:21:35;19.25;;;5.15;;
74793;SDS011;63320;50.768;6.724;2023-04-25T06:24:00;14.60;;;5.32;;
74793;SDS011;63320;50.768;6.724;2023-04-25T06:26:25;16.48;;;4.53;;
74793;SDS011;63320;50.768;6.724;2023-04-25T06:28:52;18.90;;;5.13;;
74793;SDS011;63320;50.768;6.724;2023-04-25T06:31:17;14.82;;;4.35;;
74793;SDS011;63320;50.768;6.724;2023-04-25T06:33:43;21.70;;;4.47;;
74793;SDS011;63320;50.768;6.724;2023-04-25T06:36:08;15.80;;;4.07;;
74793;SDS011;63320;50.768;6.724;2023-04-25T06:38:33;17.83;;;4.03;;
74793;SDS011;63320;50.768;6.724;2023-04-25T06:40:58;14.02;;;3.92;;
74793;SDS011;63320;50.768;6.724;2023-04-25T06:43:24;20.48;;;4.47;;
74793;SDS011;63320;50.768;6.724;2023-04-25T06:45:50;18.90;;;3.92;;
74793;SDS011;63320;50.768;6.724;2023-04-25T06:48:16;19.48;;;4.20;;
74793;SDS011;63320;50.768;6.724;2023-04-25T06:50:41;13.43;;;4.18;;
74793;SDS011;63320;50.768;6.724;2023-04-25T06:53:07;17.70;;;3.90;;
74793;SDS011;63320;50.768;6.724;2023-04-25T06:55:32;13.20;;;3.63;;
74793;SDS011;63320;50.768;6.724;2023-04-25T06:57:57;16.23;;;4.00;;
74793;SDS011;63320;50.768;6.724;2023-04-25T07:00:22;15.50;;;4.25;;
74793;SDS011;63320;50.768;6.724;2023-04-25T07:02:49;20.42;;;3.45;;
74793;SDS011;63320;50.768;6.724;2023-04-25T07:05:14;16.83;;;3.42;;
74793;SDS011;63320;50.768;6.724;2023-04-25T07:07:40;17.60;;;3.47;;
74793;SDS011;63320;50.768;6.724;2023-04-25T07:10:05;17.25;;;3.40;;
74793;SDS011;63320;50.768;6.724;2023-04-25T07:12:31;19.90;;;3.45;;
74793;SDS011;63320;50.768;6.724;2023-04-25T07:14:56;19.88;;;4.00;;
74793;SDS011;63320;50.768;6.724;2023-04-25T07:17:21;17.88;;;4.13;;
74793;SDS011;63320;50.768;6.724;2023-04-25T07:19:48;16.73;;;3.40;;
74793;SDS011;63320;50.768;6.724;2023-04-25T07:22:13;16.70;;;3.40;;
74793;SDS011;63320;50.768;6.724;2023-04-25T07:24:39;14.48;;;3.53;;
74793;SDS011;63320;50.768;6.724;2023-04-25T07:27:04;16.60;;;3.25;;
74793;SDS011;63320;50.768;6.724;2023-04-25T07:29:29;15.88;;;2.45;;
74793;SDS011;63320;50.768;6.724;2023-04-25T07:31:55;16.10;;;2.83;;
74793;SDS011;63320;50.768;6.724;2023-04-25T07:34:20;10.68;;;2.85;;
74793;SDS011;63320;50.768;6.724;2023-04-25T07:36:47;17.77;;;2.72;;
74793;SDS011;63320;50.768;6.724;2023-04-25T07:39:12;11.23;;;2.70;;
74793;SDS011;63320;50.768;6.724;2023-04-25T07:41:37;15.73;;;2.78;;
74793;SDS011;63320;50.768;6.724;2023-04-25T07:44:03;13.10;;;2.10;;
74793;SDS011;63320;50.768;6.724;2023-04-25T07:46:28;16.83;;;3.08;;
74793;SDS011;63320;50.768;6.724;2023-04-25T07:48:54;16.52;;;3.10;;
74793;SDS011;63320;50.768;6.724;2023-04-25T07:51:19;10.75;;;2.55;;
74793;SDS011;63320;50.768;6.724;2023-04-25T07:53:46;19.08;;;2.75;;
74793;SDS011;63320;50.768;6.724;2023-04-25T07:56:11;13.18;;;2.58;;
74793;SDS011;63320;50.768;6.724;2023-04-25T07:58:36;15.18;;;2.30;;
74793;SDS011;63320;50.768;6.724;2023-04-25T08:01:02;15.38;;;3.58;;
74793;SDS011;63320;50.768;6.724;2023-04-25T08:03:27;11.63;;;2.38;;
74793;SDS011;63320;50.768;6.724;2023-04-25T08:05:52;11.55;;;2.67;;
74793;SDS011;63320;50.768;6.724;2023-04-25T08:08:18;13.57;;;2.50;;
74793;SDS011;63320;50.768;6.724;2023-04-25T08:10:44;12.95;;;2.53;;
74793;SDS011;63320;50.768;6.724;2023-04-25T08:13:10;14.23;;;2.67;;
74793;SDS011;63320;50.768;6.724;2023-04-25T08:15:35;12.10;;;2.28;;
74793;SDS011;63320;50.768;6.724;2023-04-25T08:18:00;10.60;;;2.40;;
74793;SDS011;63320;50.768;6.724;2023-04-25T08:20:26;14.45;;;2.58;;
74793;SDS011;63320;50.768;6.724;2023-04-25T08:22:51;10.80;;;2.22;;
74793;SDS011;63320;50.768;6.724;2023-04-25T08:25:16;11.57;;;2.22;;
74793;SDS011;63320;50.768;6.724;2023-04-25T08:27:43;10.98;;;2.20;;
74793;SDS011;63320;50.768;6.724;2023-04-25T08:30:09;10.10;;;2.50;;
74793;SDS011;63320;50.768;6.724;2023-04-25T08:32:35;9.85;;;1.98;;
74793;SDS011;63320;50.768;6.724;2023-04-25T08:35:00;10.07;;;1.80;;
74793;SDS011;63320;50.768;6.724;2023-04-25T08:37:26;11.25;;;2.00;;
74793;SDS011;63320;50.768;6.724;2023-04-25T08:39:51;13.02;;;2.50;;
74793;SDS011;63320;50.768;6.724;2023-04-25T08:42:16;13.30;;;2.45;;
74793;SDS011;63320;50.768;6.724;2023-04-25T08:44:44;12.48;;;2.35;;
74793;SDS011;63320;50.768;6.724;2023-04-25T08:47:10;17.58;;;2.42;;
74793;SDS011;63320;50.768;6.724;2023-04-25T08:49:35;10.30;;;2.40;;
74793;SDS011;63320;50.768;6.724;2023-04-25T08:52:04;6.22;;;1.75;;
74793;SDS011;63320;50.768;6.724;2023-04-25T08:54:29;6.68;;;1.83;;
74793;SDS011;63320;50.768;6.724;2023-04-25T08:56:56;7.72;;;1.30;;
74793;SDS011;63320;50.768;6.724;2023-04-25T08:59:22;6.63;;;1.27;;
74793;SDS011;63320;50.768;6.724;2023-04-25T09:01:50;7.60;;;1.73;;
74793;SDS011;63320;50.768;6.724;2023-04-25T09:04:15;15.05;;;2.55;;
74793;SDS011;63320;50.768;6.724;2023-04-25T09:06:41;7.95;;;1.55;;
74793;SDS011;63320;50.768;6.724;2023-04-25T09:09:06;9.95;;;1.60;;
74793;SDS011;63320;50.768;6.724;2023-04-25T09:11:34;11.40;;;1.60;;
74793;SDS011;63320;50.768;6.724;2023-04-25T09:14:10;10.85;;;1.80;;
74793;SDS011;63320;50.768;6.724;2023-04-25T09:16:36;11.40;;;1.67;;
74793;SDS011;63320;50.768;6.724;2023-04-25T09:19:27;9.68;;;1.60;;
74793;SDS011;63320;50.768;6.724;2023-04-25T09:21:54;9.77;;;1.65;;
74793;SDS011;63320;50.768;6.724;2023-04-25T09:24:28;11.13;;;1.80;;
74793;SDS011;63320;50.768;6.724;2023-04-25T09:26:55;11.38;;;1.88;;
74793;SDS011;63320;50.768;6.724;2023-04-25T09:29:20;14.38;;;2.25;;
74793;SDS011;63320;50.768;6.724;2023-04-25T09:31:54;9.50;;;1.98;;
74793;SDS011;63320;50.768;6.724;2023-04-25T09:34:39;9.00;;;1.60;;
74793;SDS011;63320;50.768;6.724;2023-04-25T09:37:05;8.90;;;1.77;;
74793;SDS011;63320;50.768;6.724;2023-04-25T09:39:32;9.23;;;1.88;;
74793;SDS011;63320;50.768;6.724;2023-04-25T09:41:57;14.10;;;2.25;;
74793;SDS011;63320;50.768;6.724;2023-04-25T09:44:24;6.40;;;1.42;;
74793;SDS011;63320;50.768;6.724;2023-04-25T09:46:49;8.95;;;1.83;;
74793;SDS011;63320;50.768;6.724;2023-04-25T09:49:15;8.65;;;1.77;;
74793;SDS011;63320;50.768;6.724;2023-04-25T09:51:41;12.70;;;2.25;;
74793;SDS011;63320;50.768;6.724;2023-04-25T09:54:07;6.47;;;1.42;;
74793;SDS011;63320;50.768;6.724;2023-04-25T09:56:33;9.35;;;1.80;;
74793;SDS011;63320;50.768;6.724;2023-04-25T09:59:01;9.57;;;1.60;;
74793;SDS011;63320;50.768;6.724;2023-04-25T10:01:27;6.72;;;1.70;;
74793;SDS011;63320;50.768;6.724;2023-04-25T10:03:53;8.52;;;1.80;;
74793;SDS011;63320;50.768;6.724;2023-04-25T10:06:22;9.82;;;2.47;;
74793;SDS011;63320;50.768;6.724;2023-04-25T10:08:51;15.73;;;2.15;;
74793;SDS011;63320;50.768;6.724;2023-04-25T10:11:17;10.13;;;2.10;;
74793;SDS011;63320;50.768;6.724;2023-04-25T10:13:43;7.53;;;1.70;;
74793;SDS011;63320;50.768;6.724;2023-04-25T10:16:10;10.38;;;1.73;;
74793;SDS011;63320;50.768;6.724;2023-04-25T10:18:36;10.73;;;1.80;;
74793;SDS011;63320;50.768;6.724;2023-04-25T10:21:01;11.32;;;2.30;;
74793;SDS011;63320;50.768;6.724;2023-04-25T10:23:29;12.68;;;1.90;;
74793;SDS011;63320;50.768;6.724;2023-04-25T10:25:57;7.57;;;1.63;;
74793;SDS011;63320;50.768;6.724;2023-04-25T10:28:23;9.18;;;1.63;;
74793;SDS011;63320;50.768;6.724;2023-04-25T10:30:56;11.35;;;2.00;;
74793;SDS011;63320;50.768;6.724;2023-04-25T10:33:24;10.60;;;2.00;;
74793;SDS011;63320;50.768;6.724;2023-04-25T10:35:54;9.80;;;2.20;;
74793;SDS011;63320;50.768;6.724;2023-04-25T10:38:23;10.40;;;1.73;;
74793;SDS011;63320;50.768;6.724;2023-04-25T10:41:03;10.60;;;3.15;;
74793;SDS011;63320;50.768;6.724;2023-04-25T10:43:39;12.52;;;2.25;;
74793;SDS011;63320;50.768;6.724;2023-04-25T10:46:14;8.02;;;2.05;;
74793;SDS011;63320;50.768;6.724;2023-04-25T10:48:50;10.45;;;2.25;;
74793;SDS011;63320;50.768;6.724;2023-04-25T10:51:18;12.52;;;2.08;;
74793;SDS011;63320;50.768;6.724;2023-04-25T10:53:44;11.63;;;2.00;;
74793;SDS011;63320;50.768;6.724;2023-04-25T10:56:12;11.65;;;2.08;;
74793;SDS011;63320;50.768;6.724;2023-04-25T10:58:42;9.88;;;2.42;;
74793;SDS011;63320;50.768;6.724;2023-04-25T11:01:08;9.00;;;2.13;;
74793;SDS011;63320;50.768;6.724;2023-04-25T11:03:37;9.15;;;2.55;;
74793;SDS011;63320;50.768;6.724;2023-04-25T11:06:05;14.27;;;2.55;;
74793;SDS011;63320;50.768;6.724;2023-04-25T11:08:37;13.88;;;2.70;;
74793;SDS011;63320;50.768;6.724;2023-04-25T11:11:15;10.32;;;2.70;;
74793;SDS011;63320;50.768;6.724;2023-04-25T11:13:41;9.88;;;2.28;;
74793;SDS011;63320;50.768;6.724;2023-04-25T11:16:06;11.93;;;2.17;;
74793;SDS011;63320;50.768;6.724;2023-04-25T11:18:32;12.98;;;3.03;;
74793;SDS011;63320;50.768;6.724;2023-04-25T11:20:57;9.85;;;2.40;;
74793;SDS011;63320;50.768;6.724;2023-04-25T11:23:22;10.23;;;1.92;;
74793;SDS011;63320;50.768;6.724;2023-04-25T11:25:48;7.05;;;1.95;;
74793;SDS011;63320;50.768;6.724;2023-04-25T11:28:20;9.18;;;2.08;;
74793;SDS011;63320;50.768;6.724;2023-04-25T11:30:47;7.70;;;2.10;;
74793;SDS011;63320;50.768;6.724;2023-04-25T11:33:13;9.88;;;2.75;;
74793;SDS011;63320;50.768;6.724;2023-04-25T11:35:39;10.32;;;2.33;;
74793;SDS011;63320;50.768;6.724;2023-04-25T11:38:05;8.02;;;2.35;;
74793;SDS011;63320;50.768;6.724;2023-04-25T11:40:30;11.93;;;1.75;;
74793;SDS011;63320;50.768;6.724;2023-04-25T11:42:56;9.77;;;1.50;;
74793;SDS011;63320;50.768;6.724;2023-04-25T11:45:26;8.55;;;2.28;;
74793;SDS011;63320;50.768;6.724;2023-04-25T11:47:51;9.68;;;2.03;;
74793;SDS011;63320;50.768;6.724;2023-04-25T11:50:17;4.32;;;1.42;;
74793;SDS011;63320;50.768;6.724;2023-04-25T11:52:43;8.45;;;1.75;;
74793;SDS011;63320;50.768;6.724;2023-04-25T11:55:12;9.95;;;2.00;;
74793;SDS011;63320;50.768;6.724;2023-04-25T11:57:38;9.23;;;2.08;;
74793;SDS011;63320;50.768;6.724;2023-04-25T12:00:06;8.27;;;2.00;;
74793;SDS011;63320;50.768;6.724;2023-04-25T12:02:35;8.20;;;2.38;;
74793;SDS011;63320;50.768;6.724;2023-04-25T12:05:01;7.55;;;1.88;;
74793;SDS011;63320;50.768;6.724;2023-04-25T12:07:28;9.18;;;2.05;;
74793;SDS011;63320;50.768;6.724;2023-04-25T12:09:54;11.23;;;2.30;;
74793;SDS011;63320;50.768;6.724;2023-04-25T12:12:19;10.07;;;2.00;;
74793;SDS011;63320;50.768;6.724;2023-04-25T12:14:46;7.53;;;1.80;;
74793;SDS011;63320;50.768;6.724;2023-04-25T12:17:12;8.75;;;1.73;;
74793;SDS011;63320;50.768;6.724;2023-04-25T12:19:39;8.65;;;2.22;;
74793;SDS011;63320;50.768;6.724;2023-04-25T12:22:10;6.82;;;1.80;;
74793;SDS011;63320;50.768;6.724;2023-04-25T12:24:44;10.85;;;2.10;;
74793;SDS011;63320;50.768;6.724;2023-04-25T12:27:09;8.77;;;1.83;;
74793;SDS011;63320;50.768;6.724;2023-04-25T12:29:35;13.07;;;2.10;;
74793;SDS011;63320;50.768;6.724;2023-04-25T12:32:00;10.25;;;2.10;;
74793;SDS011;63320;50.768;6.724;2023-04-25T12:34:26;8.95;;;2.10;;
74793;SDS011;63320;50.768;6.724;2023-04-25T12:36:52;7.07;;;2.08;;
74793;SDS011;63320;50.768;6.724;2023-04-25T12:39:19;8.07;;;2.50;;
74793;SDS011;63320;50.768;6.724;2023-04-25T12:41:45;9.93;;;2.45;;
74793;SDS011;63320;50.768;6.724;2023-04-25T12:44:11;5.60;;;1.73;;
74793;SDS011;63320;50.768;6.724;2023-04-25T12:46:37;7.38;;;1.60;;
74793;SDS011;63320;50.768;6.724;2023-04-25T12:49:03;10.32;;;1.90;;
74793;SDS011;63320;50.768;6.724;2023-04-25T12:51:28;7.18;;;1.83;;
74793;SDS011;63320;50.768;6.724;2023-04-25T12:53:55;9.40;;;2.22;;
74793;SDS011;63320;50.768;6.724;2023-04-25T12:56:21;7.13;;;2.15;;
74793;SDS011;63320;50.768;6.724;2023-04-25T12:58:46;6.95;;;1.70;;
74793;SDS011;63320;50.768;6.724;2023-04-25T13:01:12;9.68;;;2.10;;
74793;SDS011;63320;50.768;6.724;2023-04-25T13:03:37;10.07;;;2.88;;
74793;SDS011;63320;50.768;6.724;2023-04-25T13:06:02;6.38;;;1.67;;
74793;SDS011;63320;50.768;6.724;2023-04-25T13:08:28;7.03;;;1.67;;
74793;SDS011;63320;50.768;6.724;2023-04-25T13:10:56;8.90;;;1.75;;
74793;SDS011;63320;50.768;6.724;2023-04-25T13:13:21;8.48;;;2.40;;
74793;SDS011;63320;50.768;6.724;2023-04-25T13:15:46;8.02;;;1.95;;
74793;SDS011;63320;50.768;6.724;2023-04-25T13:18:12;9.20;;;2.00;;
74793;SDS011;63320;50.768;6.724;2023-04-25T13:20:37;7.97;;;2.40;;
74793;SDS011;63320;50.768;6.724;2023-04-25T13:23:02;6.22;;;1.63;;
74793;SDS011;63320;50.768;6.724;2023-04-25T13:25:27;11.27;;;2.50;;
74793;SDS011;63320;50.768;6.724;2023-04-25T13:27:54;7.40;;;1.80;;
74793;SDS011;63320;50.768;6.724;2023-04-25T13:30:20;6.35;;;1.55;;
74793;SDS011;63320;50.768;6.724;2023-04-25T13:32:45;7.13;;;1.85;;
74793;SDS011;63320;50.768;6.724;2023-04-25T13:35:12;8.18;;;1.60;;
74793;SDS011;63320;50.768;6.724;2023-04-25T13:37:38;8.02;;;1.60;;
74793;SDS011;63320;50.768;6.724;2023-04-25T13:40:04;8.20;;;1.63;;
74793;SDS011;63320;50.768;6.724;2023-04-25T13:42:32;11.90;;;1.80;;
74793;SDS011;63320;50.768;6.724;2023-04-25T13:44:58;7.35;;;1.52;;
74793;SDS011;63320;50.768;6.724;2023-04-25T13:47:25;8.07;;;1.92;;
74793;SDS011;63320;50.768;6.724;2023-04-25T13:49:50;9.13;;;1.55;;
74793;SDS011;63320;50.768;6.724;2023-04-25T13:52:16;10.32;;;1.80;;
74793;SDS011;63320;50.768;6.724;2023-04-25T13:54:42;5.90;;;1.75;;
74793;SDS011;63320;50.768;6.724;2023-04-25T13:57:07;7.80;;;1.75;;
74793;SDS011;63320;50.768;6.724;2023-04-25T13:59:32;8.57;;;1.75;;
74793;SDS011;63320;50.768;6.724;2023-04-25T14:01:59;6.47;;;1.88;;
74793;SDS011;63320;50.768;6.724;2023-04-25T14:04:24;7.68;;;2.00;;
74793;SDS011;63320;50.768;6.724;2023-04-25T14:06:50;9.30;;;2.08;;
74793;SDS011;63320;50.768;6.724;2023-04-25T14:09:15;7.50;;;1.90;;
74793;SDS011;63320;50.768;6.724;2023-04-25T14:11:40;7.43;;;2.20;;
74793;SDS011;63320;50.768;6.724;2023-04-25T14:14:06;8.07;;;1.90;;
74793;SDS011;63320;50.768;6.724;2023-04-25T14:16:31;7.60;;;1.75;;
74793;SDS011;63320;50.768;6.724;2023-04-25T14:18:58;8.30;;;2.00;;
74793;SDS011;63320;50.768;6.724;2023-04-25T14:21:24;9.38;;;1.63;;
74793;SDS011;63320;50.768;6.724;2023-04-25T14:23:49;7.93;;;2.67;;
74793;SDS011;63320;50.768;6.724;2023-04-25T14:26:14;10.15;;;2.92;;
74793;SDS011;63320;50.768;6.724;2023-04-25T14:28:40;6.93;;;2.28;;
74793;SDS011;63320;50.768;6.724;2023-04-25T14:31:05;5.85;;;1.45;;